createdAt,value
2023-03-30T00:01:17.372Z,1.83
2023-03-30T00:06:06.160Z,1.87
2023-03-30T00:10:49.533Z,2.00
2023-03-30T00:15:41.085Z,2.20
2023-03-30T00:20:26.864Z,1.90
2023-03-30T00:25:17.814Z,1.63
2023-03-30T00:30:01.607Z,2.17
2023-03-30T00:34:51.257Z,1.90
2023-03-30T00:39:38.336Z,2.50
2023-03-30T00:44:59.321Z,2.40
2023-03-30T00:49:49.209Z,1.90
2023-03-30T00:54:35.266Z,2.10
2023-03-30T00:59:23.069Z,2.20
2023-03-30T01:04:11.293Z,1.90
2023-03-30T01:09:00.996Z,1.70
2023-03-30T01:13:50.960Z,2.20
2023-03-30T01:18:48.372Z,2.30
2023-03-30T01:24:09.310Z,1.70
2023-03-30T01:29:11.642Z,1.90
2023-03-30T01:34:22.489Z,2.60
2023-03-30T01:39:23.327Z,2.20
2023-03-30T01:44:16.553Z,1.90
2023-03-30T01:49:04.742Z,2.73
2023-03-30T01:53:52.329Z,4.03
2023-03-30T01:58:40.218Z,4.63
2023-03-30T02:03:28.652Z,5.00
2023-03-30T02:08:17.251Z,4.67
2023-03-30T02:13:14.733Z,4.40
2023-03-30T02:18:03.120Z,3.87
2023-03-30T02:22:52.608Z,3.70
2023-03-30T02:27:38.623Z,4.70
2023-03-30T02:32:38.119Z,4.80
2023-03-30T02:37:45.038Z,5.20
2023-03-30T02:43:05.604Z,5.67
2023-03-30T02:48:07.730Z,6.87
2023-03-30T02:53:12.761Z,5.47
2023-03-30T02:58:06.144Z,7.03
2023-03-30T03:03:12.963Z,8.60
2023-03-30T03:07:58.080Z,8.13
2023-03-30T03:12:42.328Z,9.00
2023-03-30T03:17:34.851Z,9.60
2023-03-30T03:22:34.913Z,9.40
2023-03-30T03:27:22.491Z,9.63
2023-03-30T03:32:24.686Z,11.00
2023-03-30T03:37:14.803Z,11.53
2023-03-30T03:42:03.649Z,11.67
2023-03-30T03:46:51.162Z,11.40
2023-03-30T03:51:37.626Z,11.80
2023-03-30T03:56:27.734Z,13.13
2023-03-30T04:01:14.663Z,12.23
2023-03-30T04:06:02.481Z,12.60
2023-03-30T04:10:50.364Z,12.30
2023-03-30T04:15:54.623Z,13.57
2023-03-30T04:20:56.164Z,12.97
2023-03-30T04:26:02.103Z,12.70
2023-03-30T04:31:10.456Z,13.77
2023-03-30T04:36:26.114Z,13.57
2023-03-30T04:41:33.477Z,12.40
2023-03-30T04:46:34.335Z,10.90
2023-03-30T04:51:56.082Z,9.47
2023-03-30T04:56:44.185Z,4.10
2023-03-30T05:02:01.386Z,6.20
2023-03-30T05:07:07.308Z,5.73
2023-03-30T05:12:26.047Z,5.20
2023-03-30T05:17:44.939Z,5.10
2023-03-30T05:22:51.747Z,4.83
2023-03-30T05:27:58.152Z,4.10
2023-03-30T05:33:27.993Z,3.57
2023-03-30T05:38:36.085Z,3.33
2023-03-30T05:43:57.700Z,2.47
2023-03-30T05:48:59.700Z,2.70
2023-03-30T05:54:03.731Z,3.03
2023-03-30T05:59:38.375Z,2.60
2023-03-30T06:05:01.697Z,2.40
2023-03-30T06:09:45.968Z,2.60
2023-03-30T06:14:51.571Z,3.20
2023-03-30T06:20:09.170Z,2.20
2023-03-30T06:25:01.970Z,2.30
2023-03-30T06:29:47.940Z,1.90
2023-03-30T06:34:34.843Z,1.87
2023-03-30T06:39:22.149Z,2.20
2023-03-30T06:44:14.806Z,1.90
2023-03-30T06:49:00.435Z,2.13
2023-03-30T06:54:16.757Z,1.33
2023-03-30T06:59:07.902Z,1.90
2023-03-30T07:04:26.539Z,1.80
2023-03-30T07:09:44.090Z,1.97
2023-03-30T07:14:33.815Z,1.70
2023-03-30T07:19:22.557Z,1.70
2023-03-30T07:24:12.339Z,2.10
2023-03-30T07:28:58.168Z,1.67
2023-03-30T07:33:48.046Z,1.90
2023-03-30T07:38:37.486Z,1.80
2023-03-30T07:43:21.176Z,1.67
2023-03-30T07:48:11.851Z,1.57
2023-03-30T07:53:00.252Z,2.00
2023-03-30T07:57:47.501Z,2.30
2023-03-30T08:02:33.448Z,1.70
2023-03-30T08:07:23.848Z,2.10
2023-03-30T08:12:28.304Z,1.80
2023-03-30T08:17:16.221Z,1.90
2023-03-30T08:22:02.541Z,1.70
2023-03-30T08:26:49.148Z,2.80
2023-03-30T08:31:39.044Z,1.83
2023-03-30T08:36:26.620Z,2.17
2023-03-30T08:41:44.142Z,1.87
2023-03-30T08:46:34.439Z,2.50
2023-03-30T08:51:25.564Z,2.00
2023-03-30T08:56:28.694Z,1.80
2023-03-30T09:01:20.024Z,1.63
2023-03-30T09:06:18.032Z,2.23
2023-03-30T09:11:14.097Z,2.10
2023-03-30T09:21:15.950Z,2.23
2023-03-30T09:26:20.566Z,2.43
2023-03-30T09:31:10.967Z,2.07
2023-03-30T09:36:05.241Z,2.00
2023-03-30T09:41:11.987Z,2.60
2023-03-30T09:46:07.924Z,2.20
2023-03-30T09:50:51.933Z,2.33
2023-03-30T09:55:41.237Z,2.70
2023-03-30T10:00:32.513Z,2.60
2023-03-30T10:05:27.210Z,3.10
2023-03-30T10:10:35.120Z,3.27
2023-03-30T10:15:37.289Z,3.00
2023-03-30T10:20:58.099Z,2.77
2023-03-30T10:26:14.301Z,2.53
2023-03-30T10:31:09.620Z,2.63
2023-03-30T10:36:10.756Z,2.17
2023-03-30T10:41:12.260Z,1.93
2023-03-30T10:46:23.499Z,1.80
2023-03-30T10:51:58.911Z,1.40
2023-03-30T11:02:40.327Z,1.40
2023-03-30T11:07:57.142Z,1.10
2023-03-30T11:12:47.483Z,1.20
2023-03-30T11:17:51.166Z,1.23
2023-03-30T11:22:51.678Z,1.57
2023-03-30T11:27:50.695Z,1.20
2023-03-30T11:32:56.525Z,1.10
2023-03-30T11:38:00.589Z,0.97
2023-03-30T11:43:10.069Z,1.13
2023-03-30T11:48:16.063Z,1.30
2023-03-30T11:53:28.001Z,1.20
2023-03-30T11:58:38.426Z,1.33
2023-03-30T12:03:38.000Z,1.40
2023-03-30T12:08:45.277Z,1.07
2023-03-30T12:13:41.258Z,2.00
2023-03-30T12:18:47.275Z,1.57
2023-03-30T12:23:42.417Z,1.63
2023-03-30T12:28:35.730Z,2.30
2023-03-30T12:33:36.149Z,2.07
2023-03-30T12:38:23.506Z,1.87
2023-03-30T12:43:23.809Z,2.60
2023-03-30T12:48:32.946Z,2.60
2023-03-30T12:54:02.301Z,2.30
2023-03-30T12:59:04.485Z,2.20
2023-03-30T13:03:56.286Z,2.40
2023-03-30T13:08:41.872Z,2.50
2023-03-30T13:13:47.670Z,2.10
2023-03-30T13:18:49.587Z,2.30
2023-03-30T13:23:40.861Z,2.53
2023-03-30T13:29:00.479Z,2.20
2023-03-30T13:33:50.208Z,1.93
2023-03-30T13:39:05.232Z,2.57
2023-03-30T13:44:08.686Z,2.50
2023-03-30T13:49:14.087Z,2.50
2023-03-30T13:54:05.094Z,2.30
2023-03-30T13:59:03.343Z,2.37
2023-03-30T14:03:52.768Z,2.37
2023-03-30T14:08:45.006Z,1.80
2023-03-30T14:13:29.076Z,1.80
2023-03-30T14:18:35.865Z,1.57
2023-03-30T14:23:41.553Z,2.10
2023-03-30T14:28:29.408Z,1.50
2023-03-30T14:33:14.965Z,1.30
2023-03-30T14:38:15.936Z,1.40
2023-03-30T14:43:05.048Z,1.50
2023-03-30T14:47:56.413Z,1.70
2023-03-30T14:52:44.444Z,1.50
2023-03-30T14:57:31.703Z,1.70
2023-03-30T15:02:21.207Z,1.40
2023-03-30T15:07:06.787Z,1.50
2023-03-30T15:11:58.459Z,1.70
2023-03-30T15:16:42.328Z,1.40
2023-03-30T15:21:46.729Z,1.73
2023-03-30T15:26:35.003Z,1.60
2023-03-30T15:31:23.205Z,2.40
2023-03-30T15:36:14.018Z,2.10
2023-03-30T15:40:57.834Z,1.60
2023-03-30T15:46:04.567Z,1.77
2023-03-30T15:51:07.440Z,0.60
2023-03-30T15:55:54.106Z,0.50
2023-03-30T16:00:42.135Z,0.70
2023-03-30T16:11:40.570Z,0.90
2023-03-30T16:16:27.732Z,0.90
2023-03-30T16:21:15.802Z,0.83
2023-03-30T16:26:03.470Z,1.60
2023-03-30T16:30:56.214Z,1.07
2023-03-30T16:35:42.433Z,1.67
2023-03-30T16:40:32.747Z,0.90
2023-03-30T16:45:30.123Z,0.80
2023-03-30T16:50:34.288Z,0.90
2023-03-30T16:55:28.180Z,0.90
2023-03-30T17:00:47.426Z,0.90
2023-03-30T17:05:49.463Z,0.90
2023-03-30T17:11:19.122Z,0.60
2023-03-30T17:16:10.091Z,0.53
2023-03-30T17:21:04.755Z,0.80
2023-03-30T17:26:03.755Z,0.60
2023-03-30T17:30:50.221Z,0.90
2023-03-30T17:35:53.176Z,0.70
2023-03-30T17:40:48.615Z,0.63
2023-03-30T17:45:33.325Z,0.80
2023-03-30T17:50:23.570Z,0.67
2023-03-30T17:55:08.678Z,0.60
2023-03-30T17:59:59.488Z,0.90
2023-03-30T18:04:56.573Z,0.70
2023-03-30T18:09:46.597Z,0.60
2023-03-30T18:14:33.305Z,0.90
2023-03-30T18:19:26.120Z,0.87
2023-03-30T18:24:14.554Z,1.10
2023-03-30T18:28:58.946Z,0.90
2023-03-30T18:33:47.363Z,0.97
2023-03-30T18:38:37.051Z,0.90
2023-03-30T18:43:21.217Z,1.20
2023-03-30T18:48:14.345Z,0.93
2023-03-30T18:53:00.432Z,1.10
2023-03-30T18:57:47.311Z,1.60
2023-03-30T19:02:33.992Z,0.87
2023-03-30T19:07:24.636Z,1.00
2023-03-30T19:12:14.705Z,1.00
2023-03-30T19:16:59.998Z,0.70
2023-03-30T19:21:46.454Z,0.70
2023-03-30T19:26:34.151Z,0.90
2023-03-30T19:31:23.847Z,0.93
2023-03-30T19:36:11.702Z,0.80
2023-03-30T19:41:01.973Z,0.90
2023-03-30T19:45:45.617Z,0.70
2023-03-30T19:50:35.149Z,0.97
2023-03-30T19:55:23.542Z,0.90
2023-03-30T20:00:15.327Z,0.80
2023-03-30T20:04:58.979Z,0.83
2023-03-30T20:09:45.382Z,0.80
2023-03-30T20:14:40.000Z,1.17
2023-03-30T20:19:29.412Z,0.80
2023-03-30T20:24:28.492Z,0.80
2023-03-30T20:29:13.986Z,0.77
2023-03-30T20:34:01.367Z,0.80
2023-03-30T20:38:55.200Z,1.00
2023-03-30T20:43:57.247Z,0.80
2023-03-30T20:48:42.164Z,1.10
2023-03-30T20:53:30.730Z,0.90
2023-03-30T20:58:17.355Z,1.40
2023-03-30T21:03:10.083Z,1.07
2023-03-30T21:07:55.131Z,1.00
2023-03-30T21:12:43.089Z,0.70
2023-03-30T21:17:29.688Z,1.07
2023-03-30T21:22:52.320Z,0.83
2023-03-30T21:27:37.684Z,1.00
2023-03-30T21:32:26.161Z,1.07
2023-03-30T21:37:19.307Z,1.00
2023-03-30T21:42:03.242Z,0.97
2023-03-30T21:46:50.101Z,0.90
2023-03-30T21:51:40.965Z,1.00
2023-03-30T21:56:30.083Z,1.33
2023-03-30T22:01:13.897Z,1.73
2023-03-30T22:06:36.496Z,1.00
2023-03-30T22:11:27.843Z,1.20
2023-03-30T22:16:16.717Z,1.10
2023-03-30T22:21:00.916Z,0.93
2023-03-30T22:25:47.752Z,0.80
2023-03-30T22:30:49.642Z,1.10
2023-03-30T22:35:39.394Z,0.97
2023-03-30T22:40:26.695Z,1.17
2023-03-30T22:45:16.251Z,0.90
2023-03-30T22:50:06.063Z,0.90
2023-03-30T22:54:49.716Z,1.10
2023-03-30T22:59:39.599Z,1.40
2023-03-30T23:04:28.073Z,1.30
2023-03-30T23:09:16.241Z,0.93
2023-03-30T23:14:05.196Z,1.00
2023-03-30T23:18:52.899Z,1.17
2023-03-30T23:23:45.659Z,0.87
2023-03-30T23:28:33.816Z,1.20
2023-03-30T23:33:21.587Z,1.10
2023-03-30T23:38:11.012Z,0.93
2023-03-30T23:43:01.181Z,0.97
2023-03-30T23:47:48.811Z,1.10
2023-03-30T23:52:32.386Z,1.00
2023-03-30T23:57:20.108Z,0.80
